createdAt,value
2024-02-26T00:00:42.180Z,2.30
2024-02-26T00:08:50.610Z,2.30
2024-02-26T00:16:56.472Z,2.20
2024-02-26T00:25:04.932Z,1.92
2024-02-26T00:33:11.591Z,2.05
2024-02-26T00:41:20.102Z,2.28
2024-02-26T00:49:25.944Z,2.28
2024-02-26T00:57:34.151Z,2.30
2024-02-26T01:05:40.727Z,1.65
2024-02-26T01:13:49.186Z,1.60
2024-02-26T01:21:55.001Z,1.92
2024-02-26T01:30:04.552Z,1.58
2024-02-26T01:38:10.231Z,1.70
2024-02-26T01:46:20.481Z,1.50
2024-02-26T01:54:26.620Z,1.90
2024-02-26T02:02:35.450Z,2.40
2024-02-26T02:10:42.164Z,3.25
2024-02-26T02:18:50.720Z,3.30
2024-02-26T02:26:59.643Z,3.78
2024-02-26T02:35:05.471Z,3.90
2024-02-26T02:43:13.948Z,2.80
2024-02-26T02:51:19.654Z,3.28
2024-02-26T02:59:28.018Z,3.40
2024-02-26T03:07:33.702Z,4.47
2024-02-26T03:15:42.384Z,4.70
2024-02-26T03:23:48.200Z,5.25
2024-02-26T03:31:56.578Z,5.38
2024-02-26T03:40:02.550Z,5.10
2024-02-26T03:48:11.841Z,5.28
2024-02-26T03:56:17.725Z,6.05
2024-02-26T04:04:26.163Z,5.78
2024-02-26T04:12:31.965Z,6.72
2024-02-26T04:20:40.560Z,5.68
2024-02-26T04:28:46.381Z,6.28
2024-02-26T04:36:54.699Z,7.93
2024-02-26T04:45:00.633Z,6.57
2024-02-26T04:53:09.598Z,7.45
2024-02-26T05:01:15.347Z,8.15
2024-02-26T05:09:24.082Z,7.43
2024-02-26T05:17:29.927Z,6.85
2024-02-26T05:25:38.300Z,7.07
2024-02-26T05:33:44.414Z,8.23
2024-02-26T05:41:53.277Z,11.63
2024-02-26T05:50:00.883Z,8.07
2024-02-26T05:58:09.358Z,7.00
2024-02-26T06:06:16.904Z,8.05
2024-02-26T06:14:26.082Z,6.78
2024-02-26T06:22:31.872Z,8.80
2024-02-26T06:30:40.484Z,8.43
2024-02-26T06:38:46.276Z,8.32
2024-02-26T06:46:54.686Z,8.02
2024-02-26T06:55:00.478Z,7.65
2024-02-26T07:03:09.466Z,7.05
2024-02-26T07:11:15.581Z,7.13
2024-02-26T07:19:23.982Z,8.10
2024-02-26T07:27:29.688Z,7.78
2024-02-26T07:35:39.947Z,8.05
2024-02-26T07:43:45.614Z,7.20
2024-02-26T07:51:53.997Z,7.47
2024-02-26T07:59:59.681Z,8.40
2024-02-26T08:08:08.626Z,7.07
2024-02-26T08:16:14.385Z,6.55
2024-02-26T08:24:23.015Z,6.55
2024-02-26T08:32:29.035Z,7.20
2024-02-26T08:40:37.266Z,5.72
2024-02-26T08:48:43.961Z,5.88
2024-02-26T08:56:52.360Z,3.58
2024-02-26T09:04:58.656Z,3.45
2024-02-26T09:13:10.588Z,4.22
2024-02-26T09:21:17.544Z,4.45
2024-02-26T09:29:27.836Z,4.30
2024-02-26T09:37:34.034Z,4.40
2024-02-26T09:45:42.610Z,3.90
2024-02-26T09:53:50.907Z,3.97
2024-02-26T10:02:02.575Z,4.32
2024-02-26T10:10:09.456Z,4.25
2024-02-26T10:18:18.051Z,4.35
2024-02-26T10:26:24.185Z,3.85
2024-02-26T10:34:33.124Z,4.40
2024-02-26T10:42:39.086Z,4.60
2024-02-26T10:50:48.322Z,4.75
2024-02-26T10:58:54.356Z,4.85
2024-02-26T11:07:03.766Z,5.57
2024-02-26T11:15:10.834Z,4.70
2024-02-26T11:23:19.546Z,5.35
2024-02-26T11:31:29.580Z,4.55
2024-02-26T11:39:38.775Z,4.20
2024-02-26T11:47:44.614Z,4.28
2024-02-26T11:55:53.381Z,4.20
2024-02-26T12:04:00.689Z,6.30
2024-02-26T12:12:11.491Z,4.07
2024-02-26T12:20:18.709Z,4.15
2024-02-26T12:28:27.045Z,15.25
2024-02-26T12:36:34.076Z,6.25
2024-02-26T12:44:45.881Z,6.22
2024-02-26T12:52:57.504Z,4.82
2024-02-26T13:01:08.553Z,5.03
2024-02-26T13:09:19.656Z,4.38
2024-02-26T13:17:36.207Z,3.95
2024-02-26T13:25:45.848Z,4.25
2024-02-26T13:33:56.794Z,4.05
2024-02-26T13:42:02.611Z,4.72
2024-02-26T13:50:11.788Z,4.35
2024-02-26T13:58:21.793Z,3.78
2024-02-26T14:06:30.324Z,4.32
2024-02-26T14:14:39.911Z,4.30
2024-02-26T14:22:48.355Z,3.67
2024-02-26T14:30:53.870Z,4.40
2024-02-26T14:39:02.282Z,4.15
2024-02-26T14:47:08.535Z,4.60
2024-02-26T14:55:17.046Z,4.90
2024-02-26T15:03:22.886Z,4.43
2024-02-26T15:11:31.305Z,5.22
2024-02-26T15:19:37.094Z,4.50
2024-02-26T15:27:45.519Z,4.95
2024-02-26T15:35:51.156Z,4.80
2024-02-26T15:44:01.635Z,4.28
2024-02-26T15:52:08.344Z,5.20
2024-02-26T16:00:18.538Z,5.15
2024-02-26T16:08:27.045Z,4.95
2024-02-26T16:16:38.084Z,5.10
2024-02-26T16:24:43.941Z,5.45
2024-02-26T16:32:52.282Z,4.72
2024-02-26T16:40:58.086Z,5.40
2024-02-26T16:49:08.833Z,5.28
2024-02-26T16:57:15.051Z,5.78
2024-02-26T17:05:23.673Z,5.78
2024-02-26T17:13:29.754Z,7.00
2024-02-26T17:21:38.910Z,9.30
2024-02-26T17:29:44.649Z,7.25
2024-02-26T17:37:53.646Z,6.72
2024-02-26T17:46:00.051Z,6.07
2024-02-26T17:54:08.363Z,6.50
2024-02-26T18:02:14.176Z,6.10
2024-02-26T18:10:24.543Z,6.03
2024-02-26T18:18:32.479Z,6.13
2024-02-26T18:26:56.634Z,7.10
2024-02-26T18:35:03.363Z,6.97
2024-02-26T18:43:11.858Z,6.63
2024-02-26T18:51:17.582Z,5.70
2024-02-26T18:59:26.349Z,6.50
2024-02-26T19:07:32.137Z,6.85
2024-02-26T19:15:42.505Z,6.28
2024-02-26T19:23:52.524Z,5.93
2024-02-26T19:32:02.149Z,5.75
2024-02-26T19:40:12.367Z,4.75
2024-02-26T19:48:21.213Z,5.40
2024-02-26T19:56:29.729Z,4.30
2024-02-26T20:04:38.100Z,4.95
2024-02-26T20:12:44.053Z,4.80
2024-02-26T20:20:52.697Z,4.50
2024-02-26T20:29:02.830Z,4.43
2024-02-26T20:37:24.248Z,4.28
2024-02-26T20:45:31.752Z,4.40
2024-02-26T20:53:40.626Z,4.65
2024-02-26T21:01:48.604Z,4.45
2024-02-26T21:09:57.092Z,4.45
2024-02-26T21:18:03.119Z,4.88
2024-02-26T21:26:11.675Z,4.38
2024-02-26T21:34:18.583Z,4.10
2024-02-26T21:42:31.521Z,4.00
2024-02-26T21:50:39.712Z,3.83
2024-02-26T21:59:08.305Z,3.50
2024-02-26T22:08:01.439Z,4.00
2024-02-26T22:16:12.961Z,4.00
2024-02-26T22:24:19.321Z,3.90
2024-02-26T22:32:27.667Z,4.00
2024-02-26T22:40:33.611Z,4.13
2024-02-26T22:48:42.095Z,4.72
2024-02-26T22:56:48.072Z,3.88
2024-02-26T23:04:56.523Z,4.00
2024-02-26T23:13:02.325Z,4.18
2024-02-26T23:21:10.865Z,4.00
2024-02-26T23:29:16.641Z,4.03
2024-02-26T23:37:24.867Z,4.25
2024-02-26T23:45:30.619Z,4.30
2024-02-26T23:53:38.937Z,4.03
